createdAt,value
2022-12-31T00:00:36.477Z,1.66
2022-12-31T00:03:04.703Z,1.70
2022-12-31T00:05:33.624Z,1.74
2022-12-31T00:08:03.003Z,1.39
2022-12-31T00:10:34.269Z,1.07
2022-12-31T00:13:02.359Z,1.37
2022-12-31T00:15:30.417Z,1.24
2022-12-31T00:17:58.384Z,0.16
2022-12-31T00:20:26.349Z,1.20
2022-12-31T00:22:54.356Z,1.42
2022-12-31T00:25:22.464Z,1.43
2022-12-31T00:27:51.846Z,1.41
2022-12-31T00:30:19.859Z,1.56
2022-12-31T00:32:47.868Z,1.58
2022-12-31T00:35:16.001Z,1.29
2022-12-31T00:37:44.003Z,1.19
2022-12-31T00:40:12.820Z,1.17
2022-12-31T00:42:40.851Z,0.91
2022-12-31T00:45:11.395Z,1.16
2022-12-31T00:47:39.411Z,0.95
2022-12-31T00:50:08.230Z,1.21
2022-12-31T00:52:36.199Z,1.40
2022-12-31T00:55:04.318Z,1.29
2022-12-31T00:57:32.268Z,1.46
2022-12-31T01:00:00.204Z,1.54
2022-12-31T01:02:29.849Z,1.58
2022-12-31T01:04:57.977Z,1.53
2022-12-31T01:07:25.948Z,1.47
2022-12-31T01:09:54.418Z,1.41
2022-12-31T01:12:22.416Z,1.46
2022-12-31T01:14:50.405Z,1.33
2022-12-31T01:17:18.443Z,1.07
2022-12-31T01:19:47.840Z,1.21
2022-12-31T01:22:15.837Z,1.29
2022-12-31T01:24:44.051Z,1.26
2022-12-31T01:27:12.081Z,1.09
2022-12-31T01:29:39.974Z,1.10
2022-12-31T01:32:08.010Z,1.16
2022-12-31T01:34:36.018Z,1.28
2022-12-31T01:37:05.287Z,1.28
2022-12-31T01:39:33.287Z,1.33
2022-12-31T01:42:01.203Z,1.26
2022-12-31T01:44:52.365Z,1.32
2022-12-31T01:47:29.066Z,1.26
2022-12-31T01:50:01.512Z,1.00
2022-12-31T01:52:33.727Z,0.80
2022-12-31T01:55:07.113Z,0.77
2022-12-31T01:57:36.487Z,0.89
2022-12-31T02:00:06.723Z,1.07
2022-12-31T02:02:34.900Z,1.18
2022-12-31T02:05:07.062Z,0.93
2022-12-31T02:07:36.582Z,0.89
2022-12-31T02:10:04.905Z,1.18
2022-12-31T02:12:33.188Z,1.12
2022-12-31T02:15:01.171Z,1.06
2022-12-31T02:17:34.059Z,1.20
2022-12-31T02:20:52.247Z,1.22
2022-12-31T02:23:49.848Z,1.13
2022-12-31T02:26:46.502Z,1.13
2022-12-31T02:30:00.281Z,0.95
2022-12-31T02:32:39.340Z,1.05
2022-12-31T02:35:13.137Z,1.03
2022-12-31T02:37:44.579Z,1.06
2022-12-31T02:40:16.381Z,1.12
2022-12-31T02:42:46.420Z,1.12
2022-12-31T02:45:24.164Z,1.10
2022-12-31T02:48:06.517Z,1.06
2022-12-31T02:50:42.251Z,0.99
2022-12-31T02:53:25.493Z,1.18
2022-12-31T02:56:00.275Z,1.00
2022-12-31T02:58:49.257Z,0.91
2022-12-31T03:01:54.594Z,0.99
2022-12-31T03:04:36.257Z,0.80
2022-12-31T03:07:06.842Z,0.64
2022-12-31T03:09:35.609Z,0.79
2022-12-31T03:12:22.774Z,0.61
2022-12-31T03:14:51.067Z,0.50
2022-12-31T03:17:19.133Z,0.42
2022-12-31T03:20:06.107Z,0.45
2022-12-31T03:22:36.493Z,0.31
2022-12-31T03:25:25.449Z,0.09
2022-12-31T03:27:53.782Z,0.24
2022-12-31T03:30:23.481Z,0.15
2022-12-31T03:32:52.579Z,0.12
2022-12-31T03:35:22.575Z,-0.03
2022-12-31T03:37:51.929Z,-0.19
2022-12-31T03:40:22.113Z,0.08
2022-12-31T03:42:50.220Z,0.33
2022-12-31T03:45:18.708Z,0.31
2022-12-31T03:47:46.751Z,0.30
2022-12-31T03:50:16.323Z,0.36
2022-12-31T03:52:45.865Z,0.44
2022-12-31T03:55:14.751Z,0.27
2022-12-31T03:57:43.206Z,0.17
2022-12-31T04:00:15.009Z,0.34
2022-12-31T04:02:43.265Z,0.41
2022-12-31T04:05:11.795Z,0.38
2022-12-31T04:07:40.202Z,0.27
2022-12-31T04:10:12.383Z,0.44
2022-12-31T04:12:40.895Z,0.35
2022-12-31T04:15:11.520Z,0.26
2022-12-31T04:17:39.569Z,0.05
2022-12-31T04:20:08.808Z,0.63
2022-12-31T04:22:36.749Z,0.65
2022-12-31T04:25:05.362Z,0.82
2022-12-31T04:27:34.669Z,0.89
2022-12-31T04:30:02.673Z,0.69
2022-12-31T04:32:30.754Z,0.55
2022-12-31T04:34:58.748Z,0.65
2022-12-31T04:37:26.706Z,0.85
2022-12-31T04:39:57.870Z,0.88
2022-12-31T04:42:28.316Z,0.82
2022-12-31T04:44:57.726Z,0.63
2022-12-31T04:47:25.827Z,0.85
2022-12-31T04:49:53.874Z,0.99
2022-12-31T04:52:22.120Z,1.17
2022-12-31T04:54:50.080Z,1.24
2022-12-31T04:57:18.576Z,0.97
2022-12-31T04:59:46.648Z,1.08
2022-12-31T05:02:16.252Z,1.18
2022-12-31T05:04:44.441Z,1.23
2022-12-31T05:07:12.419Z,0.97
2022-12-31T05:09:40.519Z,1.31
2022-12-31T05:12:08.708Z,0.93
2022-12-31T05:14:36.624Z,0.67
2022-12-31T05:17:04.657Z,0.43
2022-12-31T05:19:34.156Z,0.34
2022-12-31T05:22:19.195Z,0.32
2022-12-31T05:24:47.147Z,0.42
2022-12-31T05:27:15.170Z,0.32
2022-12-31T05:29:43.083Z,0.52
2022-12-31T05:32:11.081Z,0.42
2022-12-31T05:34:40.489Z,0.47
2022-12-31T05:37:08.504Z,0.25
2022-12-31T05:39:36.429Z,0.54
2022-12-31T05:42:04.460Z,0.50
2022-12-31T05:44:32.497Z,0.59
2022-12-31T05:47:00.506Z,0.42
2022-12-31T05:49:28.535Z,0.36
2022-12-31T05:51:57.981Z,0.46
2022-12-31T05:54:25.929Z,0.35
2022-12-31T05:56:53.878Z,0.32
2022-12-31T05:59:21.947Z,0.25
2022-12-31T06:01:49.973Z,0.17
2022-12-31T06:04:18.306Z,0.22
2022-12-31T06:06:46.276Z,0.17
2022-12-31T06:09:16.062Z,0.05
2022-12-31T06:11:44.381Z,-0.13
2022-12-31T06:14:12.653Z,-0.02
2022-12-31T06:16:41.286Z,-0.12
2022-12-31T06:19:09.739Z,-0.01
2022-12-31T06:21:37.716Z,0.08
2022-12-31T06:24:06.425Z,-0.05
2022-12-31T06:26:35.800Z,0.26
2022-12-31T06:29:03.875Z,0.37
2022-12-31T06:31:31.845Z,0.33
2022-12-31T06:34:00.271Z,0.50
2022-12-31T06:36:28.309Z,0.70
2022-12-31T06:38:56.633Z,0.72
2022-12-31T06:41:24.658Z,0.78
2022-12-31T06:43:54.179Z,0.78
2022-12-31T06:46:22.170Z,0.96
2022-12-31T06:48:50.115Z,1.12
2022-12-31T06:51:20.294Z,1.09
2022-12-31T06:53:49.564Z,1.24
2022-12-31T06:56:19.513Z,1.07
2022-12-31T06:58:48.913Z,1.25
2022-12-31T07:01:44.617Z,1.51
2022-12-31T07:04:53.146Z,1.49
2022-12-31T07:07:28.089Z,1.68
2022-12-31T07:10:02.965Z,1.85
2022-12-31T07:12:45.069Z,2.09
2022-12-31T07:15:17.623Z,2.08
2022-12-31T07:17:56.480Z,2.07
2022-12-31T07:20:24.936Z,2.31
2022-12-31T07:22:53.539Z,2.55
2022-12-31T07:25:23.527Z,2.70
2022-12-31T07:28:07.408Z,2.93
2022-12-31T07:30:43.983Z,2.85
2022-12-31T07:33:33.661Z,2.78
2022-12-31T07:36:14.586Z,2.81
2022-12-31T07:38:51.458Z,2.76
2022-12-31T07:41:28.281Z,2.66
2022-12-31T07:44:05.133Z,2.42
2022-12-31T07:46:42.232Z,2.18
2022-12-31T07:49:14.548Z,2.15
2022-12-31T07:51:43.482Z,2.37
2022-12-31T07:54:14.135Z,2.55
2022-12-31T07:56:43.007Z,2.68
2022-12-31T07:59:24.638Z,2.71
2022-12-31T08:01:57.809Z,2.72
2022-12-31T08:04:32.596Z,2.59
2022-12-31T08:07:11.186Z,3.14
2022-12-31T08:09:48.303Z,3.02
2022-12-31T08:12:16.567Z,3.31
2022-12-31T08:14:48.375Z,3.26
2022-12-31T08:17:18.860Z,3.44
2022-12-31T08:19:48.933Z,3.57
2022-12-31T08:22:35.981Z,3.53
2022-12-31T08:25:15.444Z,3.60
2022-12-31T08:27:51.637Z,3.65
2022-12-31T08:30:22.164Z,3.72
2022-12-31T08:32:56.037Z,3.75
2022-12-31T08:35:33.711Z,3.93
2022-12-31T08:38:16.603Z,4.00
2022-12-31T08:40:53.285Z,4.11
2022-12-31T08:43:36.499Z,4.23
2022-12-31T08:46:07.126Z,4.39
2022-12-31T08:48:40.528Z,4.50
2022-12-31T08:51:15.788Z,4.56
2022-12-31T08:53:44.326Z,4.93
2022-12-31T08:56:25.240Z,5.28
2022-12-31T08:59:02.858Z,5.24
2022-12-31T09:01:41.563Z,5.14
2022-12-31T09:04:21.458Z,5.78
2022-12-31T09:06:58.696Z,5.89
2022-12-31T09:09:36.433Z,6.06
2022-12-31T09:12:11.647Z,6.21
2022-12-31T09:14:47.059Z,6.64
2022-12-31T09:17:43.937Z,6.82
2022-12-31T09:20:18.780Z,7.16
2022-12-31T09:22:48.549Z,7.58
2022-12-31T09:25:19.048Z,7.50
2022-12-31T09:27:58.229Z,7.60
2022-12-31T09:30:29.145Z,7.92
2022-12-31T09:33:05.905Z,8.24
2022-12-31T09:35:39.775Z,8.21
2022-12-31T09:38:16.494Z,8.35
2022-12-31T09:41:15.280Z,8.23
2022-12-31T09:44:33.838Z,8.29
2022-12-31T09:47:55.786Z,8.63
2022-12-31T09:50:45.399Z,8.71
2022-12-31T09:53:40.414Z,9.16
2022-12-31T09:56:16.726Z,9.07
2022-12-31T09:58:52.633Z,8.95
2022-12-31T10:01:31.439Z,8.61
2022-12-31T10:04:32.333Z,8.86
2022-12-31T10:07:18.012Z,8.76
2022-12-31T10:10:00.926Z,8.88
2022-12-31T10:12:46.913Z,8.64
2022-12-31T10:15:36.624Z,8.75
2022-12-31T10:18:13.987Z,9.10
2022-12-31T10:20:57.338Z,8.98
2022-12-31T10:23:52.403Z,9.11
2022-12-31T10:26:38.782Z,9.06
2022-12-31T10:29:20.280Z,9.08
2022-12-31T10:32:01.499Z,9.40
2022-12-31T10:34:44.925Z,9.41
2022-12-31T10:37:17.779Z,9.65
2022-12-31T10:40:00.503Z,9.75
2022-12-31T10:43:14.226Z,10.10
2022-12-31T10:46:23.205Z,9.81
2022-12-31T10:49:32.536Z,9.82
2022-12-31T10:52:47.853Z,10.10
2022-12-31T10:56:07.927Z,10.09
2022-12-31T10:59:12.417Z,10.12
2022-12-31T11:01:49.969Z,10.43
2022-12-31T11:04:59.433Z,10.53
2022-12-31T11:07:56.610Z,10.62
2022-12-31T11:11:09.782Z,10.58
2022-12-31T11:14:13.616Z,10.45
2022-12-31T11:17:06.597Z,10.77
2022-12-31T11:19:42.953Z,10.78
2022-12-31T11:22:23.905Z,10.99
2022-12-31T11:25:17.357Z,10.96
2022-12-31T11:27:59.641Z,11.09
2022-12-31T11:30:36.952Z,11.03
2022-12-31T11:33:21.544Z,11.13
2022-12-31T11:36:04.277Z,11.09
2022-12-31T11:38:38.920Z,11.24
2022-12-31T11:41:12.359Z,11.41
2022-12-31T11:43:49.583Z,11.53
2022-12-31T11:46:35.164Z,11.11
2022-12-31T11:49:16.636Z,11.03
2022-12-31T11:52:00.799Z,10.91
2022-12-31T11:54:41.290Z,11.02
2022-12-31T11:57:19.028Z,11.06
2022-12-31T11:59:47.863Z,11.00
2022-12-31T12:02:26.308Z,11.13
2022-12-31T12:04:58.795Z,11.22
2022-12-31T12:07:27.541Z,11.41
2022-12-31T12:09:59.185Z,11.27
2022-12-31T12:12:27.102Z,11.48
2022-12-31T12:14:55.929Z,11.40
2022-12-31T12:17:32.356Z,11.55
2022-12-31T12:20:06.782Z,11.34
2022-12-31T12:22:34.706Z,11.26
2022-12-31T12:25:05.721Z,11.36
2022-12-31T12:27:36.590Z,11.72
2022-12-31T12:30:20.866Z,11.75
2022-12-31T12:32:57.364Z,12.04
2022-12-31T12:35:29.879Z,12.11
2022-12-31T12:38:03.994Z,12.06
2022-12-31T12:40:34.594Z,12.09
2022-12-31T12:43:03.867Z,12.20
2022-12-31T12:45:45.147Z,12.21
2022-12-31T12:48:21.222Z,12.43
2022-12-31T12:50:50.961Z,12.39
2022-12-31T12:53:33.528Z,12.10
2022-12-31T12:56:13.219Z,12.13
2022-12-31T12:58:55.257Z,12.39
2022-12-31T13:01:34.269Z,12.60
2022-12-31T13:04:35.406Z,12.47
2022-12-31T13:07:19.993Z,12.54
2022-12-31T13:10:11.063Z,12.68
2022-12-31T13:13:22.779Z,12.77
2022-12-31T13:15:43.692Z,12.75
2022-12-31T13:18:33.955Z,12.78
2022-12-31T13:21:09.446Z,12.80
2022-12-31T13:23:49.226Z,12.65
2022-12-31T13:26:25.861Z,12.68
2022-12-31T13:28:54.771Z,12.71
2022-12-31T13:31:28.727Z,12.55
2022-12-31T13:34:00.491Z,12.61
2022-12-31T13:36:32.782Z,12.64
2022-12-31T13:39:06.602Z,12.79
2022-12-31T13:41:41.281Z,12.76
2022-12-31T13:44:16.322Z,12.64
2022-12-31T13:46:48.802Z,12.63
2022-12-31T13:49:22.720Z,12.41
2022-12-31T13:51:52.455Z,12.44
2022-12-31T13:54:35.050Z,12.43
2022-12-31T13:57:07.063Z,12.64
2022-12-31T13:59:38.696Z,12.75
2022-12-31T14:02:17.782Z,12.83
2022-12-31T14:04:52.235Z,12.59
2022-12-31T14:07:29.192Z,12.68
2022-12-31T14:10:04.139Z,12.70
2022-12-31T14:12:41.481Z,12.58
2022-12-31T14:15:19.801Z,12.47
2022-12-31T14:17:52.623Z,12.50
2022-12-31T14:20:30.530Z,12.52
2022-12-31T14:23:08.660Z,12.25
2022-12-31T14:25:42.353Z,12.25
2022-12-31T14:28:20.010Z,12.12
2022-12-31T14:30:51.305Z,12.11
2022-12-31T14:33:31.095Z,11.93
2022-12-31T14:36:28.822Z,11.93
2022-12-31T14:39:16.662Z,11.94
2022-12-31T14:41:59.168Z,11.89
2022-12-31T14:44:37.560Z,11.88
2022-12-31T14:47:21.582Z,11.81
2022-12-31T14:49:59.816Z,11.78
2022-12-31T14:52:31.591Z,11.75
2022-12-31T14:55:12.352Z,11.74
2022-12-31T14:58:25.413Z,11.55
2022-12-31T15:00:35.150Z,11.40
2022-12-31T15:03:06.494Z,11.20
2022-12-31T15:05:36.677Z,11.10
2022-12-31T15:08:25.281Z,11.39
2022-12-31T15:11:13.347Z,11.36
2022-12-31T15:14:16.438Z,11.23
2022-12-31T15:16:53.556Z,11.23
2022-12-31T15:19:58.205Z,11.17
2022-12-31T15:22:38.163Z,11.09
2022-12-31T15:25:22.448Z,10.99
2022-12-31T15:27:50.736Z,10.83
2022-12-31T15:30:44.783Z,10.82
2022-12-31T15:33:21.177Z,10.76
2022-12-31T15:35:52.060Z,10.68
2022-12-31T15:38:33.248Z,10.64
2022-12-31T15:41:02.503Z,10.48
2022-12-31T15:43:40.947Z,10.38
2022-12-31T15:46:18.201Z,10.31
2022-12-31T15:48:52.636Z,10.27
2022-12-31T15:51:25.184Z,10.24
2022-12-31T15:53:55.298Z,10.17
2022-12-31T15:56:32.328Z,10.06
2022-12-31T15:59:03.764Z,9.95
2022-12-31T16:01:36.295Z,9.91
2022-12-31T16:04:07.919Z,9.94
2022-12-31T16:06:38.780Z,10.03
2022-12-31T16:09:17.397Z,9.94
2022-12-31T16:11:45.930Z,9.93
2022-12-31T16:14:19.560Z,9.89
2022-12-31T16:16:55.509Z,9.86
2022-12-31T16:19:30.756Z,9.54
2022-12-31T16:22:02.435Z,9.45
2022-12-31T16:24:32.771Z,9.24
2022-12-31T16:27:04.008Z,9.38
2022-12-31T16:29:32.175Z,9.36
2022-12-31T16:32:03.821Z,9.18
2022-12-31T16:34:38.019Z,9.28
2022-12-31T16:37:15.074Z,9.25
2022-12-31T16:40:18.461Z,9.26
2022-12-31T16:42:48.546Z,9.21
2022-12-31T16:45:33.504Z,8.75
2022-12-31T16:48:16.407Z,9.06
2022-12-31T16:50:46.308Z,9.06
2022-12-31T16:53:17.943Z,8.95
2022-12-31T16:55:51.571Z,8.66
2022-12-31T16:58:24.051Z,8.52
2022-12-31T17:00:52.688Z,8.23
2022-12-31T17:03:24.975Z,8.36
2022-12-31T17:05:59.223Z,8.49
2022-12-31T17:08:29.403Z,8.41
2022-12-31T17:10:57.684Z,8.15
2022-12-31T17:13:30.749Z,8.18
2022-12-31T17:16:00.343Z,8.22
2022-12-31T17:18:37.170Z,8.26
2022-12-31T17:21:09.479Z,8.15
2022-12-31T17:23:40.086Z,8.01
2022-12-31T17:26:11.967Z,8.03
2022-12-31T17:28:44.981Z,8.00
2022-12-31T17:31:36.833Z,8.02
2022-12-31T17:34:23.521Z,8.02
2022-12-31T17:37:00.160Z,7.75
2022-12-31T17:39:40.681Z,7.98
2022-12-31T17:42:10.630Z,7.66
2022-12-31T17:44:40.138Z,7.74
2022-12-31T17:47:11.817Z,7.82
2022-12-31T17:49:43.047Z,7.45
2022-12-31T17:52:13.759Z,7.28
2022-12-31T17:54:41.915Z,7.19
2022-12-31T17:57:23.998Z,7.36
2022-12-31T17:59:52.015Z,7.41
2022-12-31T18:02:20.238Z,7.41
2022-12-31T18:04:49.651Z,7.33
2022-12-31T18:07:17.615Z,7.21
2022-12-31T18:09:45.523Z,7.16
2022-12-31T18:12:16.239Z,7.16
2022-12-31T18:14:46.634Z,7.31
2022-12-31T18:17:17.194Z,7.36
2022-12-31T18:20:04.281Z,7.40
2022-12-31T18:22:35.292Z,7.42
2022-12-31T18:25:03.499Z,7.45
2022-12-31T18:27:32.319Z,6.90
2022-12-31T18:30:04.421Z,6.83
2022-12-31T18:32:34.548Z,6.26
2022-12-31T18:35:03.213Z,6.82
2022-12-31T18:37:31.248Z,6.86
2022-12-31T18:40:00.579Z,6.88
2022-12-31T18:42:29.965Z,7.02
2022-12-31T18:44:57.911Z,6.98
2022-12-31T18:47:25.902Z,7.01
2022-12-31T18:49:53.907Z,6.92
2022-12-31T18:52:25.104Z,6.87
2022-12-31T18:54:53.031Z,6.80
2022-12-31T18:57:22.358Z,6.73
2022-12-31T18:59:50.355Z,6.84
2022-12-31T19:02:21.072Z,6.77
2022-12-31T19:04:49.193Z,6.62
2022-12-31T19:07:17.133Z,6.75
2022-12-31T19:09:46.366Z,6.64
2022-12-31T19:12:15.943Z,6.50
2022-12-31T19:14:45.622Z,6.33
2022-12-31T19:17:13.593Z,6.43
2022-12-31T19:19:41.774Z,6.40
2022-12-31T19:22:14.849Z,6.21
2022-12-31T19:24:42.732Z,5.64
2022-12-31T19:27:11.524Z,5.68
2022-12-31T19:29:39.639Z,5.69
2022-12-31T19:32:09.004Z,5.52
2022-12-31T19:34:36.979Z,5.24
2022-12-31T19:37:04.965Z,5.29
2022-12-31T19:39:32.893Z,5.65
2022-12-31T19:42:00.922Z,5.68
2022-12-31T19:44:28.857Z,5.29
2022-12-31T19:46:56.896Z,5.29
2022-12-31T19:49:26.193Z,5.46
2022-12-31T19:51:54.159Z,5.45
2022-12-31T19:54:22.003Z,5.58
2022-12-31T19:56:50.112Z,5.50
2022-12-31T19:59:18.092Z,5.31
2022-12-31T20:01:46.083Z,5.35
2022-12-31T20:04:14.132Z,5.19
2022-12-31T20:06:43.466Z,5.20
2022-12-31T20:09:12.670Z,5.31
2022-12-31T20:11:40.576Z,4.99
2022-12-31T20:14:10.264Z,4.79
2022-12-31T20:16:38.266Z,4.93
2022-12-31T20:19:06.592Z,4.98
2022-12-31T20:21:34.499Z,4.69
2022-12-31T20:24:06.466Z,4.59
2022-12-31T20:26:35.155Z,4.69
2022-12-31T20:29:03.121Z,4.75
2022-12-31T20:31:31.030Z,4.13
2022-12-31T20:33:59.039Z,4.56
2022-12-31T20:36:27.626Z,4.56
2022-12-31T20:38:55.589Z,4.86
2022-12-31T20:41:25.071Z,4.92
2022-12-31T20:43:53.169Z,4.87
2022-12-31T20:46:23.348Z,4.98
2022-12-31T20:48:53.388Z,5.03
2022-12-31T20:51:22.890Z,4.56
2022-12-31T20:53:52.435Z,4.82
2022-12-31T20:56:20.475Z,4.80
2022-12-31T20:58:50.108Z,4.88
2022-12-31T21:01:18.910Z,4.83
2022-12-31T21:04:05.755Z,4.84
2022-12-31T21:06:37.311Z,4.87
2022-12-31T21:09:07.756Z,4.63
2022-12-31T21:11:53.618Z,4.87
2022-12-31T21:14:23.025Z,4.64
2022-12-31T21:16:51.284Z,4.69
2022-12-31T21:19:19.230Z,4.35
2022-12-31T21:21:48.272Z,4.20
2022-12-31T21:24:21.744Z,4.05
2022-12-31T21:26:51.685Z,4.23
2022-12-31T21:29:19.646Z,3.81
2022-12-31T21:31:49.029Z,3.72
2022-12-31T21:34:16.995Z,3.78
2022-12-31T21:36:45.011Z,4.02
2022-12-31T21:39:14.701Z,3.81
2022-12-31T21:41:54.621Z,3.75
2022-12-31T21:44:24.226Z,4.02
2022-12-31T21:47:37.155Z,4.00
2022-12-31T21:50:07.265Z,3.95
2022-12-31T21:52:35.348Z,3.65
2022-12-31T21:55:23.550Z,3.84
2022-12-31T21:58:24.763Z,3.87
2022-12-31T22:00:58.286Z,3.90
2022-12-31T22:03:28.638Z,3.83
2022-12-31T22:06:00.012Z,3.41
2022-12-31T22:08:29.878Z,3.67
2022-12-31T22:10:57.806Z,3.90
2022-12-31T22:13:25.770Z,4.08
2022-12-31T22:16:00.217Z,4.14
2022-12-31T22:18:35.588Z,4.13
2022-12-31T22:21:05.566Z,4.09
2022-12-31T22:23:34.781Z,4.03
2022-12-31T22:26:03.281Z,4.13
2022-12-31T22:28:40.006Z,4.01
2022-12-31T22:31:09.316Z,3.91
2022-12-31T22:33:38.727Z,3.92
2022-12-31T22:36:09.165Z,3.66
2022-12-31T22:38:37.425Z,3.69
2022-12-31T22:41:08.038Z,3.56
2022-12-31T22:43:38.812Z,3.49
2022-12-31T22:46:11.270Z,3.68
2022-12-31T22:48:41.615Z,3.55
2022-12-31T22:51:11.073Z,3.44
2022-12-31T22:53:39.939Z,3.28
2022-12-31T22:56:08.036Z,3.36
2022-12-31T22:58:36.603Z,3.24
2022-12-31T23:01:06.265Z,3.50
2022-12-31T23:03:34.765Z,3.32
2022-12-31T23:06:04.226Z,3.27
2022-12-31T23:08:32.177Z,3.22
2022-12-31T23:10:59.930Z,2.83
2022-12-31T23:13:50.534Z,3.14
2022-12-31T23:16:37.188Z,3.41
2022-12-31T23:19:23.847Z,3.32
2022-12-31T23:22:11.280Z,3.31
2022-12-31T23:24:39.410Z,3.14
2022-12-31T23:27:08.122Z,3.33
2022-12-31T23:29:45.550Z,3.13
2022-12-31T23:32:14.958Z,3.39
2022-12-31T23:34:44.706Z,3.48
2022-12-31T23:37:14.859Z,3.51
2022-12-31T23:39:43.484Z,3.44
2022-12-31T23:42:11.677Z,3.28
2022-12-31T23:44:39.797Z,3.25
2022-12-31T23:47:07.748Z,3.30
2022-12-31T23:49:35.709Z,3.37
2022-12-31T23:52:03.723Z,3.32
2022-12-31T23:54:33.200Z,2.97
2022-12-31T23:57:01.169Z,2.99
2022-12-31T23:59:29.126Z,3.03
